Time,TemperatureF,DewpointF,PressureIn,WindDirection,WindDirectionDegrees,WindSpeedMPH,WindSpeedGustMPH,Humidity,HourlyPrecipIn,Conditions,Clouds,dailyrainin,SoftwareType,DateUTC
2013-01-21 00:03:00,13.0,-99.9,-100.00,South,184,9.0,15.0,-999,-99.99,,,-99.99,,2013-01-21 07:03:00,
2013-01-21 00:13:00,13.0,-99.9,-100.00,South,184,9.0,15.0,-999,-99.99,,,-99.99,,2013-01-21 07:13:00,
2013-01-21 00:23:00,13.0,-99.9,-100.00,SW,216,9.0,18.0,-999,-99.99,,,-99.99,,2013-01-21 07:23:00,
2013-01-21 00:33:00,14.0,-99.9,-100.00,SW,220,9.0,22.0,-999,-99.99,,,-99.99,,2013-01-21 07:33:00,
2013-01-21 00:43:00,14.0,-99.9,-100.00,SW,220,9.0,22.0,-999,-99.99,,,-99.99,,2013-01-21 07:43:00,
2013-01-21 00:53:00,14.0,-99.9,-100.00,West,264,10.0,21.0,-999,-99.99,,,-99.99,,2013-01-21 07:53:00,
2013-01-21 01:03:00,13.0,-99.9,-100.00,SW,231,9.0,16.0,-999,-99.99,,,-99.99,,2013-01-21 08:03:00,
2013-01-21 01:14:00,13.0,-99.9,-100.00,SW,231,9.0,16.0,-999,-99.99,,,-99.99,,2013-01-21 08:14:00,
2013-01-21 01:23:00,14.0,-99.9,-100.00,South,186,8.0,12.0,-999,-99.99,,,-99.99,,2013-01-21 08:23:00,
2013-01-21 01:33:00,14.0,-99.9,-100.00,WNW,295,15.0,33.0,-999,-99.99,,,-99.99,,2013-01-21 08:33:00,
2013-01-21 01:43:00,14.0,-99.9,-100.00,WNW,295,15.0,33.0,-999,-99.99,,,-99.99,,2013-01-21 08:43:00,
2013-01-21 01:53:00,14.0,-99.9,-100.00,NW,311,17.0,25.0,-999,-99.99,,,-99.99,,2013-01-21 08:53:00,
2013-01-21 02:03:00,14.0,-99.9,-100.00,NW,313,15.0,26.0,-999,-99.99,,,-99.99,,2013-01-21 09:03:00,
2013-01-21 02:13:00,14.0,-99.9,-100.00,NW,313,15.0,26.0,-999,-99.99,,,-99.99,,2013-01-21 09:13:00,
2013-01-21 02:23:00,15.0,-99.9,-100.00,NNW,334,17.0,25.0,-999,-99.99,,,-99.99,,2013-01-21 09:23:00,
2013-01-21 02:33:00,14.0,-99.9,-100.00,NW,319,15.0,26.0,-999,-99.99,,,-99.99,,2013-01-21 09:33:00,
2013-01-21 02:43:00,14.0,-99.9,-100.00,NW,319,15.0,26.0,-999,-99.99,,,-99.99,,2013-01-21 09:43:00,
2013-01-21 02:53:00,14.0,-99.9,-100.00,WNW,293,12.0,19.0,-999,-99.99,,,-99.99,,2013-01-21 09:53:00,
2013-01-21 03:03:00,15.0,-99.9,-100.00,WNW,298,14.0,26.0,-999,-99.99,,,-99.99,,2013-01-21 10:03:00,
2013-01-21 03:12:00,15.0,-99.9,-100.00,WNW,298,14.0,26.0,-999,-99.99,,,-99.99,,2013-01-21 10:12:00,
2013-01-21 03:23:00,15.0,-99.9,-100.00,NW,304,15.0,25.0,-999,-99.99,,,-99.99,,2013-01-21 10:23:00,
2013-01-21 03:33:00,16.0,-99.9,-100.00,NW,319,20.0,29.0,-999,-99.99,,,-99.99,,2013-01-21 10:33:00,
2013-01-21 03:43:00,16.0,-99.9,-100.00,NW,319,20.0,29.0,-999,-99.99,,,-99.99,,2013-01-21 10:43:00,
2013-01-21 03:53:00,16.0,-99.9,-100.00,NW,316,24.0,39.0,-999,-99.99,,,-99.99,,2013-01-21 10:53:00,
2013-01-21 04:03:00,16.0,-99.9,-100.00,NW,326,25.0,36.0,-999,-99.99,,,-99.99,,2013-01-21 11:03:00,
2013-01-21 04:13:00,16.0,-99.9,-100.00,NW,326,25.0,36.0,-999,-99.99,,,-99.99,,2013-01-21 11:13:00,
2013-01-21 04:23:00,16.0,-99.9,-100.00,NNW,327,29.0,40.0,-999,-99.99,,,-99.99,,2013-01-21 11:23:00,
2013-01-21 04:33:00,17.0,-99.9,-100.00,NNW,327,33.0,45.0,-999,-99.99,,,-99.99,,2013-01-21 11:33:00,
2013-01-21 04:43:00,17.0,-99.9,-100.00,NNW,327,33.0,45.0,-999,-99.99,,,-99.99,,2013-01-21 11:43:00,
2013-01-21 04:53:00,17.0,-99.9,-100.00,NW,321,29.0,43.0,-999,-99.99,,,-99.99,,2013-01-21 11:53:00,
2013-01-21 05:03:00,17.0,-99.9,-100.00,NW,319,24.0,36.0,-999,-99.99,,,-99.99,,2013-01-21 12:03:00,
2013-01-21 05:12:00,17.0,-99.9,-100.00,NW,319,24.0,36.0,-999,-99.99,,,-99.99,,2013-01-21 12:12:00,
2013-01-21 05:23:00,17.0,-99.9,-100.00,NW,325,28.0,40.0,-999,-99.99,,,-99.99,,2013-01-21 12:23:00,
2013-01-21 05:33:00,17.0,-99.9,-100.00,NW,325,28.0,40.0,-999,-99.99,,,-99.99,,2013-01-21 12:33:00,
2013-01-21 05:43:00,17.0,-99.9,-100.00,NW,325,28.0,40.0,-999,-99.99,,,-99.99,,2013-01-21 12:43:00,
2013-01-21 05:53:00,17.0,-99.9,-100.00,NW,325,26.0,38.0,-999,-99.99,,,-99.99,,2013-01-21 12:53:00,
2013-01-21 06:03:00,17.0,-99.9,-100.00,NW,319,21.0,31.0,-999,-99.99,,,-99.99,,2013-01-21 13:03:00,
2013-01-21 06:13:00,17.0,-99.9,-100.00,NW,319,21.0,31.0,-999,-99.99,,,-99.99,,2013-01-21 13:13:00,
2013-01-21 06:23:00,17.0,-99.9,-100.00,NW,316,20.0,28.0,-999,-99.99,,,-99.99,,2013-01-21 13:23:00,
2013-01-21 06:33:00,17.0,-99.9,-100.00,NW,314,20.0,33.0,-999,-99.99,,,-99.99,,2013-01-21 13:33:00,
2013-01-21 06:43:00,17.0,-99.9,-100.00,NW,314,20.0,33.0,-999,-99.99,,,-99.99,,2013-01-21 13:43:00,
2013-01-21 06:54:00,17.0,-99.9,-100.00,NW,312,21.0,31.0,-999,-99.99,,,-99.99,,2013-01-21 13:54:00,
2013-01-21 07:04:00,17.0,-99.9,-100.00,NW,323,27.0,36.0,-999,-99.99,,,-99.99,,2013-01-21 14:04:00,
2013-01-21 07:13:00,17.0,-99.9,-100.00,NW,323,27.0,36.0,-999,-99.99,,,-99.99,,2013-01-21 14:13:00,
2013-01-21 07:23:00,16.0,-99.9,-100.00,NW,322,27.0,42.0,-999,-99.99,,,-99.99,,2013-01-21 14:23:00,
2013-01-21 07:33:00,17.0,-99.9,-100.00,NW,319,24.0,36.0,-999,-99.99,,,-99.99,,2013-01-21 14:33:00,
2013-01-21 07:43:00,17.0,-99.9,-100.00,NW,319,24.0,36.0,-999,-99.99,,,-99.99,,2013-01-21 14:43:00,
2013-01-21 07:54:00,17.0,-99.9,-100.00,NW,314,25.0,38.0,-999,-99.99,,,-99.99,,2013-01-21 14:54:00,
2013-01-21 08:03:00,16.0,-99.9,-100.00,NW,322,28.0,36.0,-999,-99.99,,,-99.99,,2013-01-21 15:03:00,
2013-01-21 08:14:00,16.0,-99.9,-100.00,NW,322,28.0,36.0,-999,-99.99,,,-99.99,,2013-01-21 15:14:00,
2013-01-21 08:23:00,17.0,-99.9,-100.00,NW,322,28.0,38.0,-999,-99.99,,,-99.99,,2013-01-21 15:23:00,
2013-01-21 08:33:00,16.0,-99.9,-100.00,NW,324,27.0,40.0,-999,-99.99,,,-99.99,,2013-01-21 15:33:00,
2013-01-21 08:43:00,16.0,-99.9,-100.00,NW,321,24.0,32.0,-999,-99.99,,,-99.99,,2013-01-21 15:43:00,
2013-01-21 08:54:00,16.0,-99.9,-100.00,NW,321,24.0,32.0,-999,-99.99,,,-99.99,,2013-01-21 15:54:00,
2013-01-21 09:13:00,17.0,-99.9,-100.00,NW,310,21.0,32.0,-999,-99.99,,,-99.99,,2013-01-21 16:13:00,
2013-01-21 09:24:00,17.0,-99.9,-100.00,NW,309,22.0,35.0,-999,-99.99,,,-99.99,,2013-01-21 16:24:00,
2013-01-21 09:34:00,18.0,-99.9,-100.00,WNW,295,20.0,32.0,-999,-99.99,,,-99.99,,2013-01-21 16:34:00,
2013-01-21 09:44:00,18.0,-99.9,-100.00,WNW,295,20.0,32.0,-999,-99.99,,,-99.99,,2013-01-21 16:44:00,
2013-01-21 09:53:00,19.0,-99.9,-100.00,WNW,290,18.0,31.0,-999,-99.99,,,-99.99,,2013-01-21 16:53:00,
2013-01-21 10:03:00,19.0,-99.9,-100.00,WNW,289,19.0,36.0,-999,-99.99,,,-99.99,,2013-01-21 17:03:00,
2013-01-21 10:13:00,19.0,-99.9,-100.00,WNW,289,19.0,36.0,-999,-99.99,,,-99.99,,2013-01-21 17:13:00,
2013-01-21 10:23:00,19.0,-99.9,-100.00,NW,314,21.0,39.0,-999,-99.99,,,-99.99,,2013-01-21 17:23:00,
2013-01-21 10:33:00,19.0,-99.9,-100.00,NW,311,21.0,32.0,-999,-99.99,,,-99.99,,2013-01-21 17:33:00,
2013-01-21 10:43:00,19.0,-99.9,-100.00,NW,311,21.0,32.0,-999,-99.99,,,-99.99,,2013-01-21 17:43:00,
2013-01-21 10:53:00,20.0,-99.9,-100.00,WNW,300,19.0,36.0,-999,-99.99,,,-99.99,,2013-01-21 17:53:00,
2013-01-21 11:03:00,20.0,-99.9,-100.00,NW,308,22.0,36.0,-999,-99.99,,,-99.99,,2013-01-21 18:03:00,
2013-01-21 11:12:00,20.0,-99.9,-100.00,NW,308,22.0,36.0,-999,-99.99,,,-99.99,,2013-01-21 18:12:00,
2013-01-21 11:23:00,21.0,-99.9,-100.00,NW,304,20.0,31.0,-999,-99.99,,,-99.99,,2013-01-21 18:23:00,
2013-01-21 11:33:00,20.0,-99.9,-100.00,WNW,293,17.0,31.0,-999,-99.99,,,-99.99,,2013-01-21 18:33:00,
2013-01-21 11:43:00,20.0,-99.9,-100.00,WNW,293,17.0,31.0,-999,-99.99,,,-99.99,,2013-01-21 18:43:00,
2013-01-21 11:53:00,19.0,-99.9,-100.00,WNW,289,14.0,33.0,-999,-99.99,,,-99.99,,2013-01-21 18:53:00,
2013-01-21 12:04:00,18.0,-99.9,-100.00,WNW,299,14.0,22.0,-999,-99.99,,,-99.99,,2013-01-21 19:04:00,
2013-01-21 12:13:00,18.0,-99.9,-100.00,WNW,299,14.0,22.0,-999,-99.99,,,-99.99,,2013-01-21 19:13:00,
2013-01-21 12:23:00,19.0,-99.9,-100.00,WNW,291,14.0,24.0,-999,-99.99,,,-99.99,,2013-01-21 19:23:00,
2013-01-21 12:33:00,17.0,-99.9,-100.00,NW,305,16.0,25.0,-999,-99.99,,,-99.99,,2013-01-21 19:33:00,
2013-01-21 12:43:00,17.0,-99.9,-100.00,NW,305,16.0,25.0,-999,-99.99,,,-99.99,,2013-01-21 19:43:00,
2013-01-21 12:53:00,17.0,-99.9,-100.00,NW,311,19.0,26.0,-999,-99.99,,,-99.99,,2013-01-21 19:53:00,
2013-01-21 13:04:00,17.0,-99.9,-100.00,NW,314,17.0,24.0,-999,-99.99,,,-99.99,,2013-01-21 20:04:00,
2013-01-21 13:13:00,17.0,-99.9,-100.00,NW,314,17.0,24.0,-999,-99.99,,,-99.99,,2013-01-21 20:13:00,
2013-01-21 13:23:00,18.0,-99.9,-100.00,NW,311,16.0,24.0,-999,-99.99,,,-99.99,,2013-01-21 20:23:00,
2013-01-21 13:33:00,18.0,-99.9,-100.00,NW,311,16.0,24.0,-999,-99.99,,,-99.99,,2013-01-21 20:33:00,
2013-01-21 13:43:00,18.0,-99.9,-100.00,NW,311,16.0,24.0,-999,-99.99,,,-99.99,,2013-01-21 20:43:00,
2013-01-21 13:53:00,17.0,-99.9,-100.00,NW,308,18.0,28.0,-999,-99.99,,,-99.99,,2013-01-21 20:53:00,
2013-01-21 14:04:00,17.0,-99.9,-100.00,NW,314,18.0,25.0,-999,-99.99,,,-99.99,,2013-01-21 21:04:00,
2013-01-21 14:13:00,17.0,-99.9,-100.00,NW,314,18.0,25.0,-999,-99.99,,,-99.99,,2013-01-21 21:13:00,
2013-01-21 14:23:00,17.0,-99.9,-100.00,WNW,299,20.0,26.0,-999,-99.99,,,-99.99,,2013-01-21 21:23:00,
2013-01-21 14:33:00,17.0,-99.9,-100.00,WNW,302,19.0,29.0,-999,-99.99,,,-99.99,,2013-01-21 21:33:00,
2013-01-21 14:43:00,17.0,-99.9,-100.00,WNW,302,19.0,29.0,-999,-99.99,,,-99.99,,2013-01-21 21:43:00,
2013-01-21 14:54:00,18.0,-99.9,-100.00,NW,311,17.0,26.0,-999,-99.99,,,-99.99,,2013-01-21 21:54:00,
2013-01-21 15:04:00,18.0,-99.9,-100.00,NW,306,18.0,26.0,-999,-99.99,,,-99.99,,2013-01-21 22:04:00,
2013-01-21 15:13:00,18.0,-99.9,-100.00,NW,306,18.0,26.0,-999,-99.99,,,-99.99,,2013-01-21 22:13:00,
2013-01-21 15:24:00,17.0,-99.9,-100.00,NW,306,21.0,29.0,-999,-99.99,,,-99.99,,2013-01-21 22:24:00,
2013-01-21 15:33:00,18.0,-99.9,-100.00,NW,308,19.0,28.0,-999,-99.99,,,-99.99,,2013-01-21 22:33:00,
2013-01-21 15:43:00,18.0,-99.9,-100.00,NW,308,19.0,28.0,-999,-99.99,,,-99.99,,2013-01-21 22:43:00,
2013-01-21 15:53:00,18.0,-99.9,-100.00,WNW,302,18.0,28.0,-999,-99.99,,,-99.99,,2013-01-21 22:53:00,
2013-01-21 16:03:00,18.0,-99.9,-100.00,WNW,303,22.0,31.0,-999,-99.99,,,-99.99,,2013-01-21 23:03:00,
2013-01-21 16:13:00,18.0,-99.9,-100.00,WNW,303,22.0,31.0,-999,-99.99,,,-99.99,,2013-01-21 23:13:00,
2013-01-21 16:23:00,18.0,-99.9,-100.00,WNW,300,21.0,33.0,-999,-99.99,,,-99.99,,2013-01-21 23:23:00,
2013-01-21 16:33:00,18.0,-99.9,-100.00,NW,305,19.0,31.0,-999,-99.99,,,-99.99,,2013-01-21 23:33:00,
2013-01-21 16:43:00,18.0,-99.9,-100.00,NW,305,19.0,31.0,-999,-99.99,,,-99.99,,2013-01-21 23:43:00,
2013-01-21 16:53:00,17.0,-99.9,-100.00,NW,308,18.0,28.0,-999,-99.99,,,-99.99,,2013-01-21 23:53:00,
2013-01-21 17:03:00,18.0,-99.9,-100.00,WNW,303,21.0,29.0,-999,-99.99,,,-99.99,,2013-01-22 00:03:00,
2013-01-21 17:12:00,18.0,-99.9,-100.00,WNW,303,21.0,29.0,-999,-99.99,,,-99.99,,2013-01-22 00:12:00,
2013-01-21 17:23:00,17.0,-99.9,-100.00,WNW,297,23.0,32.0,-999,-99.99,,,-99.99,,2013-01-22 00:23:00,
2013-01-21 17:33:00,17.0,-99.9,-100.00,WNW,298,20.0,28.0,-999,-99.99,,,-99.99,,2013-01-22 00:33:00,
2013-01-21 17:43:00,17.0,-99.9,-100.00,WNW,298,20.0,28.0,-999,-99.99,,,-99.99,,2013-01-22 00:43:00,
2013-01-21 17:53:00,17.0,-99.9,-100.00,WNW,292,21.0,28.0,-999,-99.99,,,-99.99,,2013-01-22 00:53:00,
2013-01-21 18:03:00,17.0,-99.9,-100.00,WNW,294,20.0,26.0,-999,-99.99,,,-99.99,,2013-01-22 01:03:00,
2013-01-21 18:13:00,17.0,-99.9,-100.00,WNW,294,20.0,26.0,-999,-99.99,,,-99.99,,2013-01-22 01:13:00,
2013-01-21 18:23:00,16.0,-99.9,-100.00,WNW,295,21.0,26.0,-999,-99.99,,,-99.99,,2013-01-22 01:23:00,
2013-01-21 18:33:00,16.0,-99.9,-100.00,WNW,295,21.0,26.0,-999,-99.99,,,-99.99,,2013-01-22 01:33:00,
2013-01-21 18:43:00,16.0,-99.9,-100.00,WNW,295,21.0,26.0,-999,-99.99,,,-99.99,,2013-01-22 01:43:00,
2013-01-21 18:53:00,16.0,-99.9,-100.00,WNW,298,23.0,29.0,-999,-99.99,,,-99.99,,2013-01-22 01:53:00,
2013-01-21 19:03:00,15.0,-99.9,-100.00,WNW,295,22.0,29.0,-999,-99.99,,,-99.99,,2013-01-22 02:03:00,
2013-01-21 19:12:00,15.0,-99.9,-100.00,WNW,295,22.0,29.0,-999,-99.99,,,-99.99,,2013-01-22 02:12:00,
2013-01-21 19:23:00,15.0,-99.9,-100.00,WNW,297,21.0,28.0,-999,-99.99,,,-99.99,,2013-01-22 02:23:00,
2013-01-21 19:33:00,15.0,-99.9,-100.00,WNW,292,22.0,26.0,-999,-99.99,,,-99.99,,2013-01-22 02:33:00,
2013-01-21 19:43:00,15.0,-99.9,-100.00,WNW,292,22.0,26.0,-999,-99.99,,,-99.99,,2013-01-22 02:43:00,
2013-01-21 19:53:00,15.0,-99.9,-100.00,WNW,292,22.0,26.0,-999,-99.99,,,-99.99,,2013-01-22 02:53:00,
2013-01-21 20:03:00,16.0,-99.9,-100.00,WNW,288,21.0,26.0,-999,-99.99,,,-99.99,,2013-01-22 03:03:00,
2013-01-21 20:12:00,16.0,-99.9,-100.00,WNW,288,21.0,26.0,-999,-99.99,,,-99.99,,2013-01-22 03:12:00,
2013-01-21 20:23:00,16.0,-99.9,-100.00,WNW,287,18.0,25.0,-999,-99.99,,,-99.99,,2013-01-22 03:23:00,
2013-01-21 20:33:00,15.0,-99.9,-100.00,WNW,289,17.0,25.0,-999,-99.99,,,-99.99,,2013-01-22 03:33:00,
2013-01-21 20:43:00,15.0,-99.9,-100.00,WNW,289,17.0,25.0,-999,-99.99,,,-99.99,,2013-01-22 03:43:00,
2013-01-21 20:53:00,14.0,-99.9,-100.00,West,276,19.0,26.0,-999,-99.99,,,-99.99,,2013-01-22 03:53:00,
2013-01-21 21:03:00,14.0,-99.9,-100.00,West,278,18.0,24.0,-999,-99.99,,,-99.99,,2013-01-22 04:03:00,
2013-01-21 21:12:00,14.0,-99.9,-100.00,West,278,18.0,24.0,-999,-99.99,,,-99.99,,2013-01-22 04:12:00,
2013-01-21 21:22:00,14.0,-99.9,-100.00,WNW,282,21.0,26.0,-999,-99.99,,,-99.99,,2013-01-22 04:22:00,
2013-01-21 21:33:00,13.0,-99.9,-100.00,WNW,290,22.0,28.0,-999,-99.99,,,-99.99,,2013-01-22 04:33:00,
2013-01-21 21:43:00,13.0,-99.9,-100.00,WNW,290,22.0,28.0,-999,-99.99,,,-99.99,,2013-01-22 04:43:00,
2013-01-21 21:53:00,14.0,-99.9,-100.00,WNW,283,22.0,29.0,-999,-99.99,,,-99.99,,2013-01-22 04:53:00,
2013-01-21 22:05:00,14.0,-99.9,-100.00,WNW,284,22.0,29.0,-999,-99.99,,,-99.99,,2013-01-22 05:05:00,
2013-01-21 22:12:00,14.0,-99.9,-100.00,WNW,284,22.0,29.0,-999,-99.99,,,-99.99,,2013-01-22 05:12:00,
2013-01-21 22:23:00,15.0,-99.9,-100.00,WNW,286,22.0,28.0,-999,-99.99,,,-99.99,,2013-01-22 05:23:00,
2013-01-21 22:33:00,15.0,-99.9,-100.00,WNW,286,22.0,28.0,-999,-99.99,,,-99.99,,2013-01-22 05:33:00,
2013-01-21 22:43:00,15.0,-99.9,-100.00,WNW,286,22.0,28.0,-999,-99.99,,,-99.99,,2013-01-22 05:43:00,
2013-01-21 22:53:00,14.0,-99.9,-100.00,WNW,299,16.0,25.0,-999,-99.99,,,-99.99,,2013-01-22 05:53:00,
2013-01-21 23:02:00,15.0,-99.9,-100.00,WNW,292,18.0,29.0,-999,-99.99,,,-99.99,,2013-01-22 06:02:00,
2013-01-21 23:12:00,15.0,-99.9,-100.00,WNW,292,18.0,29.0,-999,-99.99,,,-99.99,,2013-01-22 06:12:00,
2013-01-21 23:22:00,15.0,-99.9,-100.00,WNW,294,19.0,26.0,-999,-99.99,,,-99.99,,2013-01-22 06:22:00,
2013-01-21 23:33:00,14.0,-99.9,-100.00,WNW,292,19.0,28.0,-999,-99.99,,,-99.99,,2013-01-22 06:33:00,
2013-01-21 23:43:00,14.0,-99.9,-100.00,WNW,292,19.0,28.0,-999,-99.99,,,-99.99,,2013-01-22 06:43:00,
2013-01-21 23:53:00,15.0,-99.9,-100.00,WNW,295,21.0,26.0,-999,-99.99,,,-99.99,,2013-01-22 06:53:00,